createdAt,value
2017-05-08T00:00:20.519Z,10.75
2017-05-08T00:01:31.564Z,10.76
2017-05-08T00:02:42.575Z,10.76
2017-05-08T00:03:53.793Z,10.76
2017-05-08T00:05:04.796Z,10.73
2017-05-08T00:06:15.808Z,10.69
2017-05-08T00:07:26.800Z,10.69
2017-05-08T00:08:38.011Z,10.63
2017-05-08T00:09:49.016Z,10.65
2017-05-08T00:11:00.228Z,10.65
2017-05-08T00:12:11.277Z,10.69
2017-05-08T00:13:22.289Z,10.65
2017-05-08T00:14:33.308Z,10.54
2017-05-08T00:15:44.329Z,10.58
2017-05-08T00:16:55.328Z,10.55
2017-05-08T00:18:06.588Z,10.66
2017-05-08T00:19:17.597Z,10.55
2017-05-08T00:20:28.613Z,10.52
2017-05-08T00:21:39.635Z,10.54
2017-05-08T00:22:50.639Z,10.52
2017-05-08T00:24:01.848Z,10.49
2017-05-08T00:25:12.856Z,10.47
2017-05-08T00:26:24.061Z,10.58
2017-05-08T00:27:35.262Z,10.59
2017-05-08T00:28:46.289Z,10.52
2017-05-08T00:29:57.301Z,10.49
2017-05-08T00:31:08.330Z,10.51
2017-05-08T00:32:19.333Z,10.46
2017-05-08T00:33:30.335Z,10.41
2017-05-08T00:34:41.351Z,10.54
2017-05-08T00:35:52.404Z,10.49
2017-05-08T00:37:03.446Z,10.42
2017-05-08T00:38:14.654Z,10.38
2017-05-08T00:39:25.664Z,10.44
2017-05-08T00:40:36.672Z,10.36
2017-05-08T00:41:47.679Z,10.42
2017-05-08T00:42:58.730Z,10.39
2017-05-08T00:44:09.942Z,10.46
2017-05-08T00:45:20.998Z,10.35
2017-05-08T00:46:32.209Z,10.38
2017-05-08T00:47:43.211Z,10.39
2017-05-08T00:48:54.209Z,10.38
2017-05-08T00:50:05.220Z,10.38
2017-05-08T00:51:16.219Z,10.42
2017-05-08T00:52:27.252Z,10.36
2017-05-08T00:53:38.249Z,10.39
2017-05-08T00:54:49.461Z,10.35
2017-05-08T00:56:00.527Z,10.42
2017-05-08T00:57:11.528Z,10.46
2017-05-08T00:58:22.580Z,10.44
2017-05-08T00:59:33.601Z,10.39
2017-05-08T01:00:44.656Z,10.44
2017-05-08T01:01:55.659Z,10.38
2017-05-08T01:03:07.123Z,10.36
2017-05-08T01:04:18.121Z,10.44
2017-05-08T01:05:29.126Z,10.42
2017-05-08T01:06:40.174Z,10.42
2017-05-08T01:07:51.171Z,10.29
2017-05-08T01:09:02.184Z,10.29
2017-05-08T01:10:13.196Z,10.35
2017-05-08T01:11:24.211Z,10.32
2017-05-08T01:12:35.221Z,10.33
2017-05-08T01:13:46.232Z,10.32
2017-05-08T01:14:57.244Z,10.33
2017-05-08T01:16:08.273Z,10.32
2017-05-08T01:17:19.319Z,10.36
2017-05-08T01:18:30.370Z,10.35
2017-05-08T01:19:41.385Z,10.44
2017-05-08T01:20:52.389Z,10.39
2017-05-08T01:22:03.629Z,10.41
2017-05-08T01:23:14.694Z,10.25
2017-05-08T01:24:25.910Z,10.35
2017-05-08T01:25:36.909Z,10.33
2017-05-08T01:26:47.929Z,10.23
2017-05-08T01:27:58.986Z,10.31
2017-05-08T01:29:10.000Z,10.31
2017-05-08T01:30:21.041Z,10.26
2017-05-08T01:31:32.052Z,10.31
2017-05-08T01:32:43.057Z,10.32
2017-05-08T01:33:54.067Z,10.23
2017-05-08T01:35:05.073Z,10.39
2017-05-08T01:36:16.076Z,10.33
2017-05-08T01:37:27.090Z,10.42
2017-05-08T01:38:38.310Z,10.39
2017-05-08T01:39:49.530Z,10.35
2017-05-08T01:41:00.535Z,10.29
2017-05-08T01:42:11.536Z,10.32
2017-05-08T01:43:22.534Z,10.33
2017-05-08T01:44:33.572Z,10.32
2017-05-08T01:45:44.629Z,10.32
2017-05-08T01:46:55.840Z,10.36
2017-05-08T01:48:06.860Z,10.33
2017-05-08T01:49:18.066Z,10.23
2017-05-08T01:50:29.065Z,10.15
2017-05-08T01:51:40.060Z,10.18
2017-05-08T01:52:51.068Z,10.21
2017-05-08T01:54:02.076Z,10.23
2017-05-08T01:55:13.126Z,10.23
2017-05-08T01:56:24.129Z,10.31
2017-05-08T01:57:35.349Z,10.18
2017-05-08T01:58:46.365Z,10.33
2017-05-08T01:59:57.376Z,10.28
2017-05-08T02:01:08.389Z,10.26
2017-05-08T02:02:19.397Z,10.15
2017-05-08T02:03:30.403Z,10.28
2017-05-08T02:04:41.425Z,10.29
2017-05-08T02:05:52.699Z,10.2
2017-05-08T02:07:03.717Z,10.11
2017-05-08T02:08:14.719Z,10.14
2017-05-08T02:09:25.724Z,10.1
2017-05-08T02:10:37.145Z,10.03
2017-05-08T02:11:48.153Z,10.03
2017-05-08T02:12:59.168Z,10.1
2017-05-08T02:14:10.180Z,10.14
2017-05-08T02:15:21.186Z,10.08
2017-05-08T02:16:32.440Z,10.07
2017-05-08T02:17:43.439Z,10.02
2017-05-08T02:18:54.648Z,9.98
2017-05-08T02:20:05.652Z,10.1
2017-05-08T02:21:16.653Z,10.14
2017-05-08T02:22:27.658Z,10.05
2017-05-08T02:23:38.667Z,10.02
2017-05-08T02:24:49.680Z,10.02
2017-05-08T02:26:00.683Z,10.02
2017-05-08T02:27:11.747Z,9.96
2017-05-08T02:28:22.757Z,10.03
2017-05-08T02:29:33.770Z,10.1
2017-05-08T02:30:44.768Z,10.11
2017-05-08T02:31:55.766Z,10.07
2017-05-08T02:33:06.829Z,10.17
2017-05-08T02:34:17.831Z,10.15
2017-05-08T02:35:28.845Z,10.11
2017-05-08T02:36:39.853Z,10.13
2017-05-08T02:37:51.059Z,10.11
2017-05-08T02:39:02.254Z,10.15
2017-05-08T02:40:13.262Z,10.13
2017-05-08T02:41:24.267Z,10.21
2017-05-08T02:42:35.270Z,10.15
2017-05-08T02:43:46.280Z,10.15
2017-05-08T02:44:57.487Z,10.15
2017-05-08T02:46:08.502Z,10.13
2017-05-08T02:47:19.521Z,10.14
2017-05-08T02:48:30.545Z,10.14
2017-05-08T02:49:41.545Z,10.15
2017-05-08T02:50:52.605Z,10.13
2017-05-08T02:52:03.605Z,10.17
2017-05-08T02:53:14.806Z,10.18
2017-05-08T02:54:25.857Z,10.11
2017-05-08T02:55:37.077Z,10.15
2017-05-08T02:56:48.086Z,10.18
2017-05-08T02:57:59.101Z,10.26
2017-05-08T02:59:10.113Z,10.18
2017-05-08T03:00:21.189Z,10.25
2017-05-08T03:01:32.178Z,10.18
2017-05-08T03:02:43.228Z,10.23
2017-05-08T03:03:54.237Z,10.21
2017-05-08T03:05:05.245Z,10.25
2017-05-08T03:06:16.243Z,10.29
2017-05-08T03:07:27.241Z,10.31
2017-05-08T03:08:38.441Z,10.29
2017-05-08T03:09:49.652Z,10.32
2017-05-08T03:11:00.923Z,10.33
2017-05-08T03:12:11.915Z,10.36
2017-05-08T03:13:23.322Z,10.29
2017-05-08T03:14:34.529Z,10.35
2017-05-08T03:15:45.726Z,10.33
2017-05-08T03:16:56.729Z,10.29
2017-05-08T03:18:07.952Z,10.31
2017-05-08T03:19:18.966Z,10.36
2017-05-08T03:20:29.972Z,10.32
2017-05-08T03:21:41.027Z,10.32
2017-05-08T03:22:52.038Z,10.29
2017-05-08T03:24:03.035Z,10.36
2017-05-08T03:25:14.056Z,10.42
2017-05-08T03:26:25.060Z,10.41
2017-05-08T03:27:36.071Z,10.39
2017-05-08T03:28:47.072Z,10.39
2017-05-08T03:29:58.078Z,10.39
2017-05-08T03:31:09.084Z,10.42
2017-05-08T03:32:20.335Z,10.35
2017-05-08T03:33:31.540Z,10.41
2017-05-08T03:34:42.546Z,10.46
2017-05-08T03:35:53.552Z,10.44
2017-05-08T03:37:04.565Z,10.52
2017-05-08T03:38:15.780Z,10.42
2017-05-08T03:39:26.797Z,10.54
2017-05-08T03:40:37.839Z,10.44
2017-05-08T03:41:49.059Z,10.51
2017-05-08T03:43:00.078Z,10.42
2017-05-08T03:44:11.087Z,10.55
2017-05-08T03:45:22.103Z,10.55
2017-05-08T03:46:33.109Z,10.55
2017-05-08T03:47:44.325Z,10.42
2017-05-08T03:48:55.333Z,10.49
2017-05-08T03:50:06.340Z,10.52
2017-05-08T03:51:17.345Z,10.49
2017-05-08T03:52:28.376Z,10.52
2017-05-08T03:53:39.594Z,10.42
2017-05-08T03:54:50.649Z,10.42
2017-05-08T03:56:02.066Z,10.49
2017-05-08T03:57:13.070Z,10.42
2017-05-08T03:58:24.084Z,10.42
2017-05-08T03:59:35.102Z,10.46
2017-05-08T04:00:46.119Z,10.47
2017-05-08T04:01:57.124Z,10.49
2017-05-08T04:03:08.334Z,10.41
2017-05-08T04:04:19.393Z,10.46
2017-05-08T04:05:30.604Z,10.36
2017-05-08T04:06:41.820Z,10.41
2017-05-08T04:07:52.844Z,10.47
2017-05-08T04:09:03.853Z,10.39
2017-05-08T04:10:14.867Z,10.42
2017-05-08T04:11:26.276Z,10.51
2017-05-08T04:12:37.280Z,10.42
2017-05-08T04:13:48.512Z,10.51
2017-05-08T04:14:59.574Z,10.39
2017-05-08T04:16:10.584Z,10.38
2017-05-08T04:17:21.809Z,10.36
2017-05-08T04:18:32.820Z,10.41
2017-05-08T04:19:43.828Z,10.49
2017-05-08T04:20:54.837Z,10.47
2017-05-08T04:22:05.849Z,10.35
2017-05-08T04:23:16.850Z,10.42
2017-05-08T04:24:27.855Z,10.36
2017-05-08T04:25:38.909Z,10.25
2017-05-08T04:26:49.939Z,10.26
2017-05-08T04:28:00.975Z,10.29
2017-05-08T04:29:11.992Z,10.35
2017-05-08T04:30:23.006Z,10.26
2017-05-08T04:31:34.214Z,10.32
2017-05-08T04:32:45.223Z,10.33
2017-05-08T04:33:56.240Z,10.35
2017-05-08T04:35:07.252Z,10.41
2017-05-08T04:36:18.265Z,10.39
2017-05-08T04:37:29.273Z,10.39
2017-05-08T04:38:40.278Z,10.39
2017-05-08T04:39:51.292Z,10.44
2017-05-08T04:41:02.318Z,10.41
2017-05-08T04:42:13.323Z,10.41
2017-05-08T04:43:24.328Z,10.41
2017-05-08T04:44:35.344Z,10.49
2017-05-08T04:45:46.358Z,10.38
2017-05-08T04:46:57.380Z,10.42
2017-05-08T04:48:08.417Z,10.44
2017-05-08T04:49:19.436Z,10.39
2017-05-08T04:50:30.450Z,10.29
2017-05-08T04:51:41.449Z,10.32
2017-05-08T04:52:52.658Z,10.26
2017-05-08T04:54:03.869Z,10.38
2017-05-08T04:55:14.886Z,10.26
2017-05-08T04:56:25.894Z,10.21
2017-05-08T04:57:37.104Z,10.11
2017-05-08T04:58:48.165Z,10.07
2017-05-08T04:59:59.171Z,10.02
2017-05-08T05:01:10.174Z,9.99
2017-05-08T05:02:21.182Z,9.85
2017-05-08T05:03:32.433Z,9.88
2017-05-08T05:04:43.445Z,9.71
2017-05-08T05:05:54.461Z,9.8
2017-05-08T05:07:05.693Z,9.72
2017-05-08T05:08:16.742Z,9.67
2017-05-08T05:09:27.962Z,9.71
2017-05-08T05:10:38.982Z,9.7
2017-05-08T05:11:50.193Z,9.57
2017-05-08T05:13:01.196Z,9.56
2017-05-08T05:14:12.201Z,9.57
2017-05-08T05:15:23.222Z,9.59
2017-05-08T05:16:34.221Z,9.52
2017-05-08T05:17:45.442Z,9.55
2017-05-08T05:18:56.498Z,9.41
2017-05-08T05:20:07.516Z,9.37
2017-05-08T05:21:18.533Z,9.45
2017-05-08T05:22:29.532Z,9.45
2017-05-08T05:23:40.539Z,9.44
2017-05-08T05:24:51.547Z,9.41
2017-05-08T05:26:02.555Z,9.38
2017-05-08T05:27:13.574Z,9.38
2017-05-08T05:28:24.791Z,9.41
2017-05-08T05:29:36.252Z,9.47
2017-05-08T05:30:47.258Z,9.44
2017-05-08T05:31:58.273Z,9.47
2017-05-08T05:33:09.285Z,9.42
2017-05-08T05:34:20.506Z,9.32
2017-05-08T05:35:31.717Z,9.34
2017-05-08T05:36:42.725Z,9.29
2017-05-08T05:37:53.953Z,9.24
2017-05-08T05:39:04.963Z,9.14
2017-05-08T05:40:16.180Z,9.11
2017-05-08T05:41:27.194Z,9.08
2017-05-08T05:42:38.204Z,9.26
2017-05-08T05:43:49.230Z,9.11
2017-05-08T05:45:00.244Z,9.12
2017-05-08T05:46:11.508Z,9.05
2017-05-08T05:47:22.514Z,9.19
2017-05-08T05:48:33.535Z,9.14
2017-05-08T05:49:44.751Z,9.17
2017-05-08T05:50:55.807Z,9.19
2017-05-08T05:52:07.015Z,9.23
2017-05-08T05:53:18.019Z,9.2
2017-05-08T05:54:29.234Z,9.17
2017-05-08T05:55:40.649Z,9.12
2017-05-08T05:56:51.864Z,9.24
2017-05-08T05:58:02.917Z,9.23
2017-05-08T05:59:13.927Z,9.19
2017-05-08T06:00:24.945Z,9.24
2017-05-08T06:01:35.966Z,9.32
2017-05-08T06:02:47.031Z,9.32
2017-05-08T06:03:58.448Z,9.29
2017-05-08T06:05:09.455Z,9.41
2017-05-08T06:06:20.466Z,9.41
2017-05-08T06:07:31.470Z,9.47
2017-05-08T06:08:42.481Z,9.41
2017-05-08T06:09:53.498Z,9.42
2017-05-08T06:11:04.521Z,9.57
2017-05-08T06:12:15.586Z,9.45
2017-05-08T06:13:26.587Z,9.39
2017-05-08T06:14:37.608Z,9.48
2017-05-08T06:15:48.627Z,9.52
2017-05-08T06:16:59.637Z,9.37
2017-05-08T06:18:10.644Z,9.44
2017-05-08T06:19:21.668Z,9.47
2017-05-08T06:20:32.682Z,9.48
2017-05-08T06:21:43.688Z,9.53
2017-05-08T06:22:54.748Z,9.52
2017-05-08T06:24:05.755Z,9.57
2017-05-08T06:25:16.770Z,9.48
2017-05-08T06:26:27.791Z,9.52
2017-05-08T06:27:38.805Z,9.52
2017-05-08T06:28:50.015Z,9.55
2017-05-08T06:30:01.049Z,9.48
2017-05-08T06:31:12.074Z,9.55
2017-05-08T06:32:23.075Z,9.57
2017-05-08T06:33:34.177Z,9.56
2017-05-08T06:34:45.388Z,9.55
2017-05-08T06:35:56.397Z,9.53
2017-05-08T06:37:07.408Z,9.5
2017-05-08T06:38:18.411Z,9.64
2017-05-08T06:39:29.422Z,9.59
2017-05-08T06:40:40.636Z,9.53
2017-05-08T06:41:51.646Z,9.6
2017-05-08T06:43:02.658Z,9.59
2017-05-08T06:44:13.723Z,9.52
2017-05-08T06:45:24.734Z,9.48
2017-05-08T06:46:35.748Z,9.47
2017-05-08T06:47:46.757Z,9.52
2017-05-08T06:48:57.785Z,9.47
2017-05-08T06:50:08.801Z,9.55
2017-05-08T06:51:19.808Z,9.56
2017-05-08T06:52:30.819Z,9.59
2017-05-08T06:53:42.029Z,9.53
2017-05-08T06:54:53.286Z,9.59
2017-05-08T06:56:04.297Z,9.6
2017-05-08T06:57:15.510Z,9.57
2017-05-08T06:58:26.722Z,9.52
2017-05-08T06:59:37.742Z,9.57
2017-05-08T07:00:48.754Z,9.56
2017-05-08T07:01:59.767Z,9.59
2017-05-08T07:03:10.778Z,9.63
2017-05-08T07:04:21.992Z,9.7
2017-05-08T07:05:32.998Z,9.63
2017-05-08T07:06:44.218Z,9.7
2017-05-08T07:07:55.222Z,9.77
2017-05-08T07:09:06.243Z,9.66
2017-05-08T07:10:17.257Z,9.66
2017-05-08T07:11:28.332Z,9.7
2017-05-08T07:12:39.352Z,9.7
2017-05-08T07:13:50.378Z,9.7
2017-05-08T07:15:01.393Z,9.6
2017-05-08T07:16:12.605Z,9.71
2017-05-08T07:17:23.617Z,9.66
2017-05-08T07:18:34.635Z,9.67
2017-05-08T07:19:45.842Z,9.64
2017-05-08T07:20:56.888Z,9.82
2017-05-08T07:22:07.887Z,9.77
2017-05-08T07:23:18.897Z,9.75
2017-05-08T07:24:29.906Z,9.85
2017-05-08T07:25:40.911Z,9.92
2017-05-08T07:26:51.958Z,9.98
2017-05-08T07:28:03.175Z,9.95
2017-05-08T07:29:14.226Z,9.93
2017-05-08T07:30:25.235Z,9.98
2017-05-08T07:31:36.293Z,9.98
2017-05-08T07:32:47.297Z,9.95
2017-05-08T07:33:58.528Z,9.93
2017-05-08T07:35:09.752Z,9.99
2017-05-08T07:36:20.762Z,10.03
2017-05-08T07:37:31.969Z,10.02
2017-05-08T07:38:42.983Z,10
2017-05-08T07:39:53.994Z,9.93
2017-05-08T07:41:05.201Z,10
2017-05-08T07:42:16.666Z,10.03
2017-05-08T07:43:27.674Z,10.05
2017-05-08T07:44:38.698Z,10.03
2017-05-08T07:45:49.701Z,9.99
2017-05-08T07:47:00.705Z,10
2017-05-08T07:48:11.771Z,10.05
2017-05-08T07:49:22.840Z,10.13
2017-05-08T07:50:33.853Z,10.11
2017-05-08T07:51:44.891Z,10.13
2017-05-08T07:52:55.906Z,10.18
2017-05-08T07:54:06.922Z,10.25
2017-05-08T07:55:17.933Z,10.29
2017-05-08T07:56:28.952Z,10.29
2017-05-08T07:57:40.018Z,10.33
2017-05-08T07:58:51.238Z,10.35
2017-05-08T08:00:02.249Z,10.42
2017-05-08T08:01:13.446Z,10.41
2017-05-08T08:02:24.454Z,10.38
2017-05-08T08:03:35.461Z,10.39
2017-05-08T08:04:46.467Z,10.42
2017-05-08T08:05:57.476Z,10.35
2017-05-08T08:07:08.691Z,10.41
2017-05-08T08:08:19.698Z,10.42
2017-05-08T08:09:30.719Z,10.41
2017-05-08T08:10:41.927Z,10.49
2017-05-08T08:11:52.929Z,10.58
2017-05-08T08:13:03.939Z,10.66
2017-05-08T08:14:14.962Z,10.7
2017-05-08T08:15:26.033Z,10.65
2017-05-08T08:16:37.248Z,10.67
2017-05-08T08:17:48.465Z,10.76
2017-05-08T08:18:59.466Z,10.7
2017-05-08T08:20:10.675Z,10.83
2017-05-08T08:21:21.692Z,10.91
2017-05-08T08:22:32.705Z,10.83
2017-05-08T08:23:43.715Z,10.84
2017-05-08T08:24:54.779Z,10.91
2017-05-08T08:26:05.785Z,10.95
2017-05-08T08:27:17.003Z,10.9
2017-05-08T08:28:28.012Z,10.87
2017-05-08T08:29:39.032Z,10.94
2017-05-08T08:30:50.052Z,11.02
2017-05-08T08:32:01.059Z,11.06
2017-05-08T08:33:12.080Z,10.97
2017-05-08T08:34:23.090Z,11.02
2017-05-08T08:35:34.148Z,11.08
2017-05-08T08:36:45.357Z,11.08
2017-05-08T08:37:56.360Z,11.13
2017-05-08T08:39:07.372Z,11.15
2017-05-08T08:40:18.391Z,11.09
2017-05-08T08:41:29.408Z,11.18
2017-05-08T08:42:40.424Z,11.2
2017-05-08T08:43:51.437Z,11.21
2017-05-08T08:45:02.456Z,11.23
2017-05-08T08:46:13.521Z,11.26
2017-05-08T08:47:24.585Z,11.21
2017-05-08T08:48:35.584Z,11.18
2017-05-08T08:49:46.603Z,11.15
2017-05-08T08:50:57.610Z,11.18
2017-05-08T08:52:08.620Z,11.16
2017-05-08T08:53:19.632Z,11.15
2017-05-08T08:54:30.849Z,11.23
2017-05-08T08:55:41.862Z,11.16
2017-05-08T08:56:53.126Z,11.16
2017-05-08T08:58:04.151Z,11.18
2017-05-08T08:59:15.164Z,11.18
2017-05-08T09:00:26.178Z,11.18
2017-05-08T09:01:37.198Z,11.16
2017-05-08T09:02:48.267Z,11.08
2017-05-08T09:03:59.491Z,11.13
2017-05-08T09:05:10.501Z,11.1
2017-05-08T09:06:21.715Z,11.02
2017-05-08T09:07:32.732Z,11.02
2017-05-08T09:08:43.750Z,11.03
2017-05-08T09:09:54.765Z,11.12
2017-05-08T09:11:05.783Z,11.03
2017-05-08T09:12:17.001Z,11.05
2017-05-08T09:13:28.212Z,11.1
2017-05-08T09:14:39.222Z,11.06
2017-05-08T09:15:50.230Z,11.03
2017-05-08T09:17:01.247Z,11.12
2017-05-08T09:18:12.253Z,11.03
2017-05-08T09:19:23.258Z,11.03
2017-05-08T09:20:34.526Z,11.06
2017-05-08T09:21:45.539Z,11.12
2017-05-08T09:22:56.543Z,11.27
2017-05-08T09:24:07.559Z,11.28
2017-05-08T09:25:18.575Z,11.18
2017-05-08T09:26:29.786Z,11.15
2017-05-08T09:27:40.802Z,11.16
2017-05-08T09:28:51.816Z,11.21
2017-05-08T09:30:02.878Z,11.28
2017-05-08T09:31:13.922Z,11.23
2017-05-08T09:32:24.939Z,11.28
2017-05-08T09:33:35.956Z,11.28
2017-05-08T09:34:46.966Z,11.21
2017-05-08T09:35:57.980Z,11.26
2017-05-08T09:37:08.985Z,11.26
2017-05-08T09:38:20.193Z,11.38
2017-05-08T09:39:31.217Z,11.34
2017-05-08T09:40:42.283Z,11.46
2017-05-08T09:41:53.298Z,11.43
2017-05-08T09:43:04.320Z,11.57
2017-05-08T09:44:15.534Z,11.49
2017-05-08T09:45:26.554Z,11.51
2017-05-08T09:46:37.564Z,11.49
2017-05-08T09:47:48.569Z,11.39
2017-05-08T09:48:59.586Z,11.41
2017-05-08T09:50:10.841Z,11.48
2017-05-08T09:51:22.046Z,11.52
2017-05-08T09:52:33.058Z,11.51
2017-05-08T09:53:44.073Z,11.56
2017-05-08T09:54:55.084Z,11.59
2017-05-08T09:56:06.104Z,11.63
2017-05-08T09:57:17.317Z,11.63
2017-05-08T09:58:28.328Z,11.86
2017-05-08T09:59:39.350Z,11.89
2017-05-08T10:00:50.371Z,11.94
2017-05-08T10:02:01.639Z,12.07
2017-05-08T10:03:12.651Z,12.07
2017-05-08T10:04:23.666Z,12.1
2017-05-08T10:05:34.679Z,12.04
2017-05-08T10:06:45.699Z,12.07
2017-05-08T10:07:56.758Z,12.1
2017-05-08T10:09:07.791Z,12.15
2017-05-08T10:10:18.814Z,12.08
2017-05-08T10:11:29.835Z,12.07
2017-05-08T10:12:40.842Z,12.11
2017-05-08T10:13:51.852Z,12.18
2017-05-08T10:15:03.070Z,12.08
2017-05-08T10:16:14.098Z,12.25
2017-05-08T10:17:25.106Z,12.29
2017-05-08T10:18:36.119Z,12.33
2017-05-08T10:19:47.124Z,12.34
2017-05-08T10:20:58.139Z,12.33
2017-05-08T10:22:09.156Z,12.36
2017-05-08T10:23:20.164Z,12.37
2017-05-08T10:24:31.173Z,12.38
2017-05-08T10:25:42.221Z,12.41
2017-05-08T10:26:53.244Z,12.36
2017-05-08T10:28:04.263Z,12.29
2017-05-08T10:29:15.746Z,12.38
2017-05-08T10:30:26.761Z,12.41
2017-05-08T10:31:37.981Z,12.43
2017-05-08T10:32:49.195Z,12.43
2017-05-08T10:34:00.201Z,12.37
2017-05-08T10:35:11.258Z,12.45
2017-05-08T10:36:22.289Z,12.47
2017-05-08T10:37:33.306Z,12.44
2017-05-08T10:38:44.316Z,12.4
2017-05-08T10:39:55.338Z,12.4
2017-05-08T10:41:06.347Z,12.43
2017-05-08T10:42:17.351Z,12.45
2017-05-08T10:43:28.368Z,12.47
2017-05-08T10:44:39.389Z,12.58
2017-05-08T10:45:50.469Z,12.56
2017-05-08T10:47:01.692Z,12.7
2017-05-08T10:48:12.907Z,12.81
2017-05-08T10:49:23.923Z,12.95
2017-05-08T10:50:34.935Z,13.07
2017-05-08T10:51:45.954Z,13.25
2017-05-08T10:52:56.958Z,13.31
2017-05-08T10:54:07.961Z,13.37
2017-05-08T10:55:18.975Z,13.35
2017-05-08T10:56:30.027Z,13.28
2017-05-08T10:57:41.039Z,13.28
2017-05-08T10:58:52.054Z,13.25
2017-05-08T11:00:03.069Z,13.32
2017-05-08T11:01:14.089Z,13.27
2017-05-08T11:02:25.305Z,13.2
2017-05-08T11:03:36.313Z,13.24
2017-05-08T11:04:47.327Z,13.19
2017-05-08T11:05:58.331Z,13.17
2017-05-08T11:07:09.404Z,13.19
2017-05-08T11:08:20.416Z,13.19
2017-05-08T11:09:31.430Z,13.17
2017-05-08T11:10:42.446Z,13.2
2017-05-08T11:11:53.662Z,13.21
2017-05-08T11:13:04.715Z,13.25
2017-05-08T11:14:16.152Z,13.27
2017-05-08T11:15:27.171Z,13.21
2017-05-08T11:16:38.191Z,13.2
2017-05-08T11:17:49.206Z,13.2
2017-05-08T11:19:00.212Z,13.28
2017-05-08T11:20:11.236Z,13.25
2017-05-08T11:21:22.235Z,13.31
2017-05-08T11:22:33.252Z,13.29
2017-05-08T11:23:44.272Z,13.29
2017-05-08T11:24:55.342Z,13.27
2017-05-08T11:26:06.353Z,13.29
2017-05-08T11:27:17.365Z,13.21
2017-05-08T11:28:28.375Z,13.21
2017-05-08T11:29:39.392Z,13.14
2017-05-08T11:30:50.607Z,13.02
2017-05-08T11:32:01.628Z,13.06
2017-05-08T11:33:12.837Z,12.89
2017-05-08T11:34:23.893Z,13.01
2017-05-08T11:35:34.915Z,12.91
2017-05-08T11:36:45.929Z,12.88
2017-05-08T11:37:56.957Z,12.95
2017-05-08T11:39:07.975Z,12.91
2017-05-08T11:40:18.992Z,12.94
2017-05-08T11:41:29.996Z,12.92
2017-05-08T11:42:41.031Z,13.03
2017-05-08T11:43:52.048Z,13.03
2017-05-08T11:45:03.316Z,13.07
2017-05-08T11:46:14.333Z,13.03
2017-05-08T11:47:25.354Z,13.09
2017-05-08T11:48:36.368Z,13.03
2017-05-08T11:49:47.593Z,13.02
2017-05-08T11:50:58.804Z,13.06
2017-05-08T11:52:09.829Z,12.99
2017-05-08T11:53:20.845Z,12.95
2017-05-08T11:54:31.857Z,12.92
2017-05-08T11:55:42.944Z,12.86
2017-05-08T11:56:54.164Z,12.8
2017-05-08T11:58:05.181Z,12.94
2017-05-08T11:59:16.193Z,12.83
2017-05-08T12:00:27.211Z,12.83
2017-05-08T12:01:38.231Z,12.86
2017-05-08T12:02:49.246Z,12.84
2017-05-08T12:04:00.257Z,12.92
2017-05-08T12:05:11.272Z,12.94
2017-05-08T12:06:22.340Z,12.98
2017-05-08T12:07:33.343Z,12.84
2017-05-08T12:08:44.363Z,12.78
2017-05-08T12:09:55.378Z,12.69
2017-05-08T12:11:06.386Z,12.61
2017-05-08T12:12:17.422Z,12.62
2017-05-08T12:13:28.447Z,12.58
2017-05-08T12:14:39.707Z,12.56
2017-05-08T12:15:50.925Z,12.45
2017-05-08T12:17:01.987Z,12.59
2017-05-08T12:18:13.023Z,12.53
2017-05-08T12:19:24.038Z,12.58
2017-05-08T12:20:35.053Z,12.48
2017-05-08T12:21:46.268Z,12.55
2017-05-08T12:22:57.292Z,12.56
2017-05-08T12:24:08.306Z,12.52
2017-05-08T12:25:19.525Z,12.53
2017-05-08T12:26:30.534Z,12.51
2017-05-08T12:27:41.545Z,12.56
2017-05-08T12:28:52.605Z,12.48
2017-05-08T12:30:03.621Z,12.45
2017-05-08T12:31:14.629Z,12.45
2017-05-08T12:32:25.636Z,12.44
2017-05-08T12:33:36.649Z,12.43
2017-05-08T12:34:47.654Z,12.43
2017-05-08T12:35:58.659Z,12.45
2017-05-08T12:37:09.675Z,12.48
2017-05-08T12:38:20.738Z,12.55
2017-05-08T12:39:31.752Z,12.47
2017-05-08T12:40:42.755Z,12.56
2017-05-08T12:41:53.764Z,12.58
2017-05-08T12:43:04.786Z,12.58
2017-05-08T12:44:15.797Z,12.62
2017-05-08T12:45:26.803Z,12.62
2017-05-08T12:46:37.817Z,12.59
2017-05-08T12:47:48.840Z,12.62
2017-05-08T12:48:59.898Z,12.61
2017-05-08T12:50:10.911Z,12.61
2017-05-08T12:51:22.129Z,12.53
2017-05-08T12:52:33.166Z,12.47
2017-05-08T12:53:44.380Z,12.48
2017-05-08T12:54:55.596Z,12.47
2017-05-08T12:56:06.612Z,12.45
2017-05-08T12:57:17.638Z,12.45
2017-05-08T12:58:28.654Z,12.44
2017-05-08T12:59:39.924Z,12.4
2017-05-08T13:00:50.934Z,12.36
2017-05-08T13:02:01.945Z,12.31
2017-05-08T13:03:12.971Z,12.28
2017-05-08T13:04:23.985Z,12.28
2017-05-08T13:05:34.995Z,12.4
2017-05-08T13:06:46.007Z,12.41
2017-05-08T13:07:57.018Z,12.41
2017-05-08T13:09:08.023Z,12.41
2017-05-08T13:10:19.050Z,12.44
2017-05-08T13:11:30.060Z,12.38
2017-05-08T13:12:41.080Z,12.53
2017-05-08T13:13:52.102Z,12.38
2017-05-08T13:15:03.171Z,12.47
2017-05-08T13:16:14.183Z,12.38
2017-05-08T13:17:25.191Z,12.31
2017-05-08T13:18:36.204Z,12.25
2017-05-08T13:19:47.225Z,12.31
2017-05-08T13:20:58.241Z,12.33
2017-05-08T13:22:09.264Z,12.36
2017-05-08T13:23:20.268Z,12.31
2017-05-08T13:24:31.285Z,12.33
2017-05-08T13:25:42.290Z,12.34
2017-05-08T13:26:53.313Z,12.31
2017-05-08T13:28:04.574Z,12.34
2017-05-08T13:29:15.791Z,12.38
2017-05-08T13:30:27.208Z,12.34
2017-05-08T13:31:38.266Z,12.28
2017-05-08T13:32:49.475Z,12.36
2017-05-08T13:34:00.477Z,12.36
2017-05-08T13:35:11.693Z,12.31
2017-05-08T13:36:22.712Z,12.33
2017-05-08T13:37:33.728Z,12.23
2017-05-08T13:38:44.745Z,12.34
2017-05-08T13:39:55.760Z,12.29
2017-05-08T13:41:06.819Z,12.31
2017-05-08T13:42:17.836Z,12.34
2017-05-08T13:43:28.864Z,12.33
2017-05-08T13:44:39.875Z,12.34
2017-05-08T13:45:50.901Z,12.37
2017-05-08T13:47:02.113Z,12.31
2017-05-08T13:48:13.555Z,12.44
2017-05-08T13:49:24.775Z,12.47
2017-05-08T13:50:35.793Z,12.41
2017-05-08T13:51:46.869Z,12.45
2017-05-08T13:52:57.890Z,12.41
2017-05-08T13:54:09.099Z,12.41
2017-05-08T13:55:20.111Z,12.41
2017-05-08T13:56:31.131Z,12.48
2017-05-08T13:57:42.144Z,12.55
2017-05-08T13:58:53.161Z,12.53
2017-05-08T14:00:04.180Z,12.48
2017-05-08T14:01:15.197Z,12.56
2017-05-08T14:02:26.257Z,12.56
2017-05-08T14:03:37.266Z,12.53
2017-05-08T14:04:48.271Z,12.48
2017-05-08T14:05:59.287Z,12.48
2017-05-08T14:07:10.300Z,12.55
2017-05-08T14:08:21.309Z,12.44
2017-05-08T14:09:32.321Z,12.53
2017-05-08T14:10:43.323Z,12.48
2017-05-08T14:11:54.740Z,12.44
2017-05-08T14:13:05.809Z,12.59
2017-05-08T14:14:16.821Z,12.51
2017-05-08T14:15:27.834Z,12.73
2017-05-08T14:16:38.840Z,12.81
2017-05-08T14:17:49.850Z,12.88
2017-05-08T14:19:00.913Z,13.07
2017-05-08T14:20:11.924Z,13.24
2017-05-08T14:21:23.167Z,13.29
2017-05-08T14:22:34.381Z,13.53
2017-05-08T14:23:45.406Z,13.69
2017-05-08T14:24:56.418Z,13.91
2017-05-08T14:26:07.437Z,14.03
2017-05-08T14:27:18.652Z,14.02
2017-05-08T14:28:29.873Z,14.02
2017-05-08T14:29:40.892Z,13.9
2017-05-08T14:30:52.304Z,13.83
2017-05-08T14:32:03.319Z,13.53
2017-05-08T14:33:14.532Z,13.42
2017-05-08T14:34:25.544Z,13.29
2017-05-08T14:35:36.751Z,13.2
2017-05-08T14:36:47.765Z,13.1
2017-05-08T14:37:58.772Z,13.11
2017-05-08T14:39:09.829Z,13.11
2017-05-08T14:40:20.903Z,13.03
2017-05-08T14:41:31.916Z,13.02
2017-05-08T14:42:42.924Z,13.06
2017-05-08T14:43:53.946Z,13.03
2017-05-08T14:45:05.170Z,13.1
2017-05-08T14:46:16.179Z,13.13
2017-05-08T14:47:27.397Z,13.31
2017-05-08T14:48:38.413Z,13.42
2017-05-08T14:49:49.419Z,13.66
2017-05-08T14:51:00.887Z,13.76
2017-05-08T14:52:12.087Z,13.88
2017-05-08T14:53:23.098Z,13.86
2017-05-08T14:54:34.111Z,14.05
2017-05-08T14:55:45.126Z,14.28
2017-05-08T14:56:56.331Z,14.39
2017-05-08T14:58:07.349Z,14.42
2017-05-08T14:59:18.363Z,14.56
2017-05-08T15:00:29.579Z,14.57
2017-05-08T15:01:40.641Z,14.63
2017-05-08T15:02:51.858Z,14.69
2017-05-08T15:04:02.877Z,14.85
2017-05-08T15:05:14.090Z,14.97
2017-05-08T15:06:25.102Z,15.07
2017-05-08T15:07:36.125Z,15.13
2017-05-08T15:08:47.135Z,15.22
2017-05-08T15:09:58.158Z,15.23
2017-05-08T15:11:09.168Z,15.19
2017-05-08T15:12:20.235Z,15.23
2017-05-08T15:13:31.244Z,15.2
2017-05-08T15:14:42.265Z,15.16
2017-05-08T15:15:53.276Z,15.22
2017-05-08T15:17:04.288Z,15.2
2017-05-08T15:18:15.716Z,15.13
2017-05-08T15:19:26.730Z,15.22
2017-05-08T15:20:37.749Z,15.22
2017-05-08T15:21:48.760Z,15.07